sensor_id;sensor_type;location;lat;lon;timestamp;P1;durP1;ratioP1;P2;durP2;ratioP2
8247;SDS011;4164;49.844;8.830;2022-07-23T00:00:53;11.67;;;6.33;;
8247;SDS011;4164;49.844;8.830;2022-07-23T00:03:19;7.33;;;6.43;;
8247;SDS011;4164;49.844;8.830;2022-07-23T00:05:44;7.83;;;6.97;;
8247;SDS011;4164;49.844;8.830;2022-07-23T00:08:10;8.60;;;6.63;;
8247;SDS011;4164;49.844;8.830;2022-07-23T00:10:36;8.43;;;6.73;;
8247;SDS011;4164;49.844;8.830;2022-07-23T00:13:01;8.00;;;6.70;;
8247;SDS011;4164;49.844;8.830;2022-07-23T00:15:27;7.50;;;6.77;;
8247;SDS011;4164;49.844;8.830;2022-07-23T00:17:52;7.30;;;6.30;;
8247;SDS011;4164;49.844;8.830;2022-07-23T00:20:18;11.57;;;6.43;;
8247;SDS011;4164;49.844;8.830;2022-07-23T00:22:50;8.53;;;6.17;;
8247;SDS011;4164;49.844;8.830;2022-07-23T00:25:18;12.70;;;6.60;;
8247;SDS011;4164;49.844;8.830;2022-07-23T00:27:44;7.27;;;5.63;;
8247;SDS011;4164;49.844;8.830;2022-07-23T00:30:10;9.53;;;5.73;;
8247;SDS011;4164;49.844;8.830;2022-07-23T00:32:49;6.63;;;5.73;;
8247;SDS011;4164;49.844;8.830;2022-07-23T00:35:21;8.70;;;5.87;;
8247;SDS011;4164;49.844;8.830;2022-07-23T00:37:48;6.57;;;5.83;;
8247;SDS011;4164;49.844;8.830;2022-07-23T00:40:13;6.13;;;5.53;;
8247;SDS011;4164;49.844;8.830;2022-07-23T00:42:39;8.20;;;6.13;;
8247;SDS011;4164;49.844;8.830;2022-07-23T00:45:05;9.73;;;6.20;;
8247;SDS011;4164;49.844;8.830;2022-07-23T00:47:32;7.07;;;6.37;;
8247;SDS011;4164;49.844;8.830;2022-07-23T00:49:58;7.97;;;6.73;;
8247;SDS011;4164;49.844;8.830;2022-07-23T00:52:23;8.80;;;7.47;;
8247;SDS011;4164;49.844;8.830;2022-07-23T00:54:49;7.73;;;6.90;;
8247;SDS011;4164;49.844;8.830;2022-07-23T00:57:15;8.30;;;7.17;;
8247;SDS011;4164;49.844;8.830;2022-07-23T00:59:41;9.37;;;7.43;;
8247;SDS011;4164;49.844;8.830;2022-07-23T01:02:07;9.13;;;7.20;;
8247;SDS011;4164;49.844;8.830;2022-07-23T01:04:33;8.50;;;7.10;;
8247;SDS011;4164;49.844;8.830;2022-07-23T01:06:58;9.83;;;7.47;;
8247;SDS011;4164;49.844;8.830;2022-07-23T01:09:25;8.37;;;6.97;;
8247;SDS011;4164;49.844;8.830;2022-07-23T01:11:51;8.23;;;7.43;;
8247;SDS011;4164;49.844;8.830;2022-07-23T01:14:19;7.47;;;6.83;;
8247;SDS011;4164;49.844;8.830;2022-07-23T01:16:46;7.73;;;6.93;;
8247;SDS011;4164;49.844;8.830;2022-07-23T01:19:13;7.80;;;7.00;;
8247;SDS011;4164;49.844;8.830;2022-07-23T01:21:43;10.60;;;6.33;;
8247;SDS011;4164;49.844;8.830;2022-07-23T01:24:11;10.20;;;6.77;;
8247;SDS011;4164;49.844;8.830;2022-07-23T01:26:37;13.40;;;6.80;;
8247;SDS011;4164;49.844;8.830;2022-07-23T01:29:04;9.57;;;6.57;;
8247;SDS011;4164;49.844;8.830;2022-07-23T01:31:30;7.73;;;7.00;;
8247;SDS011;4164;49.844;8.830;2022-07-23T01:33:56;7.50;;;6.57;;
8247;SDS011;4164;49.844;8.830;2022-07-23T01:36:22;7.03;;;6.33;;
8247;SDS011;4164;49.844;8.830;2022-07-23T01:38:48;6.87;;;6.17;;
8247;SDS011;4164;49.844;8.830;2022-07-23T01:41:14;8.87;;;6.90;;
8247;SDS011;4164;49.844;8.830;2022-07-23T01:43:40;18.93;;;6.80;;
8247;SDS011;4164;49.844;8.830;2022-07-23T01:46:05;6.80;;;6.03;;
8247;SDS011;4164;49.844;8.830;2022-07-23T01:48:31;9.40;;;6.53;;
8247;SDS011;4164;49.844;8.830;2022-07-23T01:50:57;6.47;;;5.70;;
8247;SDS011;4164;49.844;8.830;2022-07-23T01:53:22;9.27;;;6.50;;
8247;SDS011;4164;49.844;8.830;2022-07-23T01:55:48;7.87;;;6.80;;
8247;SDS011;4164;49.844;8.830;2022-07-23T01:58:13;8.47;;;6.40;;
8247;SDS011;4164;49.844;8.830;2022-07-23T02:00:39;9.60;;;6.70;;
8247;SDS011;4164;49.844;8.830;2022-07-23T02:03:04;7.17;;;5.67;;
8247;SDS011;4164;49.844;8.830;2022-07-23T02:05:30;8.67;;;6.40;;
8247;SDS011;4164;49.844;8.830;2022-07-23T02:07:57;6.87;;;6.17;;
8247;SDS011;4164;49.844;8.830;2022-07-23T02:10:24;7.17;;;6.47;;
8247;SDS011;4164;49.844;8.830;2022-07-23T02:12:49;7.20;;;6.50;;
8247;SDS011;4164;49.844;8.830;2022-07-23T02:15:15;7.30;;;6.60;;
8247;SDS011;4164;49.844;8.830;2022-07-23T02:17:41;9.10;;;6.43;;
8247;SDS011;4164;49.844;8.830;2022-07-23T02:20:07;13.30;;;6.70;;
8247;SDS011;4164;49.844;8.830;2022-07-23T02:22:35;7.10;;;6.40;;
8247;SDS011;4164;49.844;8.830;2022-07-23T02:25:02;7.30;;;6.23;;
8247;SDS011;4164;49.844;8.830;2022-07-23T02:27:28;10.97;;;6.70;;
8247;SDS011;4164;49.844;8.830;2022-07-23T02:29:54;8.53;;;6.60;;
8247;SDS011;4164;49.844;8.830;2022-07-23T02:32:19;10.23;;;6.60;;
8247;SDS011;4164;49.844;8.830;2022-07-23T02:34:46;8.20;;;6.87;;
8247;SDS011;4164;49.844;8.830;2022-07-23T02:37:12;9.30;;;6.93;;
8247;SDS011;4164;49.844;8.830;2022-07-23T02:39:38;9.73;;;7.23;;
8247;SDS011;4164;49.844;8.830;2022-07-23T02:42:03;10.83;;;7.03;;
8247;SDS011;4164;49.844;8.830;2022-07-23T02:44:29;8.53;;;6.70;;
8247;SDS011;4164;49.844;8.830;2022-07-23T02:46:55;10.53;;;7.97;;
8247;SDS011;4164;49.844;8.830;2022-07-23T02:49:20;7.60;;;6.73;;
8247;SDS011;4164;49.844;8.830;2022-07-23T02:51:46;8.97;;;7.90;;
8247;SDS011;4164;49.844;8.830;2022-07-23T02:54:11;10.67;;;8.33;;
8247;SDS011;4164;49.844;8.830;2022-07-23T02:56:37;8.67;;;7.80;;
8247;SDS011;4164;49.844;8.830;2022-07-23T02:59:02;9.53;;;7.57;;
8247;SDS011;4164;49.844;8.830;2022-07-23T03:01:28;9.30;;;7.70;;
8247;SDS011;4164;49.844;8.830;2022-07-23T03:03:54;11.50;;;7.53;;
8247;SDS011;4164;49.844;8.830;2022-07-23T03:06:19;8.47;;;7.33;;
8247;SDS011;4164;49.844;8.830;2022-07-23T03:08:45;8.23;;;7.13;;
8247;SDS011;4164;49.844;8.830;2022-07-23T03:11:10;9.60;;;7.47;;
8247;SDS011;4164;49.844;8.830;2022-07-23T03:13:36;8.77;;;7.77;;
8247;SDS011;4164;49.844;8.830;2022-07-23T03:16:03;9.30;;;8.37;;
8247;SDS011;4164;49.844;8.830;2022-07-23T03:18:36;8.43;;;7.63;;
8247;SDS011;4164;49.844;8.830;2022-07-23T03:21:02;14.33;;;9.23;;
8247;SDS011;4164;49.844;8.830;2022-07-23T03:23:27;14.30;;;9.57;;
8247;SDS011;4164;49.844;8.830;2022-07-23T03:25:53;12.77;;;8.30;;
8247;SDS011;4164;49.844;8.830;2022-07-23T03:28:18;11.90;;;8.53;;
8247;SDS011;4164;49.844;8.830;2022-07-23T03:30:45;11.73;;;9.10;;
8247;SDS011;4164;49.844;8.830;2022-07-23T03:33:15;11.57;;;8.73;;
8247;SDS011;4164;49.844;8.830;2022-07-23T03:35:42;14.57;;;8.60;;
8247;SDS011;4164;49.844;8.830;2022-07-23T03:38:08;11.97;;;8.27;;
8247;SDS011;4164;49.844;8.830;2022-07-23T03:40:34;10.90;;;8.23;;
8247;SDS011;4164;49.844;8.830;2022-07-23T03:43:00;10.23;;;8.40;;
8247;SDS011;4164;49.844;8.830;2022-07-23T03:45:25;11.27;;;8.70;;
8247;SDS011;4164;49.844;8.830;2022-07-23T03:47:51;11.07;;;8.47;;
8247;SDS011;4164;49.844;8.830;2022-07-23T03:50:16;13.80;;;8.83;;
8247;SDS011;4164;49.844;8.830;2022-07-23T03:52:42;12.27;;;8.50;;
8247;SDS011;4164;49.844;8.830;2022-07-23T03:55:08;10.00;;;8.47;;
8247;SDS011;4164;49.844;8.830;2022-07-23T03:57:34;15.87;;;8.80;;
8247;SDS011;4164;49.844;8.830;2022-07-23T03:59:59;13.93;;;9.50;;
8247;SDS011;4164;49.844;8.830;2022-07-23T04:02:25;13.53;;;8.53;;
8247;SDS011;4164;49.844;8.830;2022-07-23T04:04:50;9.77;;;8.77;;
8247;SDS011;4164;49.844;8.830;2022-07-23T04:07:16;11.30;;;9.30;;
8247;SDS011;4164;49.844;8.830;2022-07-23T04:09:42;12.97;;;8.53;;
8247;SDS011;4164;49.844;8.830;2022-07-23T04:12:08;12.70;;;8.73;;
8247;SDS011;4164;49.844;8.830;2022-07-23T04:14:34;11.03;;;8.57;;
8247;SDS011;4164;49.844;8.830;2022-07-23T04:17:00;11.00;;;8.67;;
8247;SDS011;4164;49.844;8.830;2022-07-23T04:19:26;8.50;;;7.60;;
8247;SDS011;4164;49.844;8.830;2022-07-23T04:21:51;10.77;;;9.07;;
8247;SDS011;4164;49.844;8.830;2022-07-23T04:24:17;11.87;;;8.63;;
8247;SDS011;4164;49.844;8.830;2022-07-23T04:26:43;12.97;;;8.43;;
8247;SDS011;4164;49.844;8.830;2022-07-23T04:29:09;10.77;;;8.63;;
8247;SDS011;4164;49.844;8.830;2022-07-23T04:31:34;11.80;;;8.93;;
8247;SDS011;4164;49.844;8.830;2022-07-23T04:34:00;12.77;;;8.23;;
8247;SDS011;4164;49.844;8.830;2022-07-23T04:36:25;10.57;;;9.27;;
8247;SDS011;4164;49.844;8.830;2022-07-23T04:38:51;9.77;;;8.70;;
8247;SDS011;4164;49.844;8.830;2022-07-23T04:41:16;10.57;;;8.57;;
8247;SDS011;4164;49.844;8.830;2022-07-23T04:43:42;8.83;;;7.73;;
8247;SDS011;4164;49.844;8.830;2022-07-23T04:46:07;9.33;;;8.13;;
8247;SDS011;4164;49.844;8.830;2022-07-23T04:48:35;8.90;;;7.70;;
8247;SDS011;4164;49.844;8.830;2022-07-23T04:51:01;12.80;;;9.20;;
8247;SDS011;4164;49.844;8.830;2022-07-23T04:53:27;10.73;;;8.90;;
8247;SDS011;4164;49.844;8.830;2022-07-23T04:55:52;14.60;;;9.63;;
8247;SDS011;4164;49.844;8.830;2022-07-23T04:58:18;11.93;;;9.03;;
8247;SDS011;4164;49.844;8.830;2022-07-23T05:00:43;11.53;;;9.03;;
8247;SDS011;4164;49.844;8.830;2022-07-23T05:03:09;8.90;;;8.00;;
8247;SDS011;4164;49.844;8.830;2022-07-23T05:05:34;10.63;;;8.53;;
8247;SDS011;4164;49.844;8.830;2022-07-23T05:08:00;10.80;;;8.17;;
8247;SDS011;4164;49.844;8.830;2022-07-23T05:10:26;12.60;;;8.93;;
8247;SDS011;4164;49.844;8.830;2022-07-23T05:12:52;14.40;;;9.60;;
8247;SDS011;4164;49.844;8.830;2022-07-23T05:15:17;10.30;;;8.63;;
8247;SDS011;4164;49.844;8.830;2022-07-23T05:17:43;8.50;;;7.70;;
8247;SDS011;4164;49.844;8.830;2022-07-23T05:20:08;11.77;;;8.57;;
8247;SDS011;4164;49.844;8.830;2022-07-23T05:22:34;10.03;;;8.80;;
8247;SDS011;4164;49.844;8.830;2022-07-23T05:25:00;10.63;;;8.50;;
8247;SDS011;4164;49.844;8.830;2022-07-23T05:27:25;12.63;;;8.53;;
8247;SDS011;4164;49.844;8.830;2022-07-23T05:29:51;10.23;;;8.80;;
8247;SDS011;4164;49.844;8.830;2022-07-23T05:32:16;10.40;;;8.40;;
8247;SDS011;4164;49.844;8.830;2022-07-23T05:34:42;10.33;;;8.87;;
8247;SDS011;4164;49.844;8.830;2022-07-23T05:37:08;10.60;;;8.37;;
8247;SDS011;4164;49.844;8.830;2022-07-23T05:39:33;9.90;;;8.60;;
8247;SDS011;4164;49.844;8.830;2022-07-23T05:41:59;9.87;;;8.67;;
8247;SDS011;4164;49.844;8.830;2022-07-23T05:44:24;10.83;;;8.07;;
8247;SDS011;4164;49.844;8.830;2022-07-23T05:46:52;13.53;;;8.93;;
8247;SDS011;4164;49.844;8.830;2022-07-23T05:49:17;9.67;;;8.60;;
8247;SDS011;4164;49.844;8.830;2022-07-23T05:51:43;10.70;;;9.13;;
8247;SDS011;4164;49.844;8.830;2022-07-23T05:54:09;8.80;;;7.90;;
8247;SDS011;4164;49.844;8.830;2022-07-23T05:56:34;9.63;;;8.40;;
8247;SDS011;4164;49.844;8.830;2022-07-23T05:59:00;10.10;;;8.27;;
8247;SDS011;4164;49.844;8.830;2022-07-23T06:01:25;14.03;;;9.30;;
8247;SDS011;4164;49.844;8.830;2022-07-23T06:03:51;9.07;;;8.00;;
8247;SDS011;4164;49.844;8.830;2022-07-23T06:06:17;13.07;;;8.93;;
8247;SDS011;4164;49.844;8.830;2022-07-23T06:08:42;10.23;;;8.77;;
8247;SDS011;4164;49.844;8.830;2022-07-23T06:11:08;10.97;;;7.73;;
8247;SDS011;4164;49.844;8.830;2022-07-23T06:13:34;10.50;;;8.27;;
8247;SDS011;4164;49.844;8.830;2022-07-23T06:15:59;9.93;;;8.33;;
8247;SDS011;4164;49.844;8.830;2022-07-23T06:18:25;10.50;;;8.00;;
8247;SDS011;4164;49.844;8.830;2022-07-23T06:20:50;10.47;;;9.00;;
8247;SDS011;4164;49.844;8.830;2022-07-23T06:23:16;8.17;;;7.17;;
8247;SDS011;4164;49.844;8.830;2022-07-23T06:25:41;13.07;;;8.57;;
8247;SDS011;4164;49.844;8.830;2022-07-23T06:28:07;11.00;;;7.87;;
8247;SDS011;4164;49.844;8.830;2022-07-23T06:30:32;10.07;;;8.33;;
8247;SDS011;4164;49.844;8.830;2022-07-23T06:32:58;9.90;;;8.60;;
8247;SDS011;4164;49.844;8.830;2022-07-23T06:35:23;8.97;;;8.00;;
8247;SDS011;4164;49.844;8.830;2022-07-23T06:37:49;9.63;;;8.63;;
8247;SDS011;4164;49.844;8.830;2022-07-23T06:40:15;12.77;;;8.63;;
8247;SDS011;4164;49.844;8.830;2022-07-23T06:42:41;9.53;;;8.50;;
8247;SDS011;4164;49.844;8.830;2022-07-23T06:45:07;10.27;;;8.63;;
8247;SDS011;4164;49.844;8.830;2022-07-23T06:47:32;11.43;;;8.80;;
8247;SDS011;4164;49.844;8.830;2022-07-23T06:49:58;11.97;;;8.47;;
8247;SDS011;4164;49.844;8.830;2022-07-23T06:52:24;9.43;;;8.10;;
8247;SDS011;4164;49.844;8.830;2022-07-23T06:54:50;10.23;;;8.10;;
8247;SDS011;4164;49.844;8.830;2022-07-23T06:57:17;11.93;;;8.67;;
8247;SDS011;4164;49.844;8.830;2022-07-23T06:59:42;13.97;;;8.33;;
8247;SDS011;4164;49.844;8.830;2022-07-23T07:02:08;10.10;;;8.43;;
8247;SDS011;4164;49.844;8.830;2022-07-23T07:04:33;9.03;;;7.83;;
8247;SDS011;4164;49.844;8.830;2022-07-23T07:06:59;12.07;;;9.23;;
8247;SDS011;4164;49.844;8.830;2022-07-23T07:09:25;9.13;;;8.23;;
8247;SDS011;4164;49.844;8.830;2022-07-23T07:11:51;16.03;;;9.23;;
8247;SDS011;4164;49.844;8.830;2022-07-23T07:14:17;10.63;;;7.63;;
8247;SDS011;4164;49.844;8.830;2022-07-23T07:16:42;9.67;;;8.67;;
8247;SDS011;4164;49.844;8.830;2022-07-23T07:19:08;10.20;;;8.53;;
8247;SDS011;4164;49.844;8.830;2022-07-23T07:21:34;10.87;;;8.80;;
8247;SDS011;4164;49.844;8.830;2022-07-23T07:24:00;9.60;;;8.60;;
8247;SDS011;4164;49.844;8.830;2022-07-23T07:26:28;10.00;;;8.97;;
8247;SDS011;4164;49.844;8.830;2022-07-23T07:28:54;9.90;;;8.17;;
8247;SDS011;4164;49.844;8.830;2022-07-23T07:31:20;10.10;;;8.70;;
8247;SDS011;4164;49.844;8.830;2022-07-23T07:33:45;9.83;;;8.80;;
8247;SDS011;4164;49.844;8.830;2022-07-23T07:36:11;10.47;;;8.53;;
8247;SDS011;4164;49.844;8.830;2022-07-23T07:38:36;10.80;;;9.20;;
8247;SDS011;4164;49.844;8.830;2022-07-23T07:41:02;11.77;;;8.90;;
8247;SDS011;4164;49.844;8.830;2022-07-23T07:43:27;10.07;;;8.80;;
8247;SDS011;4164;49.844;8.830;2022-07-23T07:45:53;11.03;;;9.83;;
8247;SDS011;4164;49.844;8.830;2022-07-23T07:48:18;11.53;;;9.20;;
8247;SDS011;4164;49.844;8.830;2022-07-23T07:50:44;9.70;;;8.70;;
8247;SDS011;4164;49.844;8.830;2022-07-23T07:53:09;10.60;;;8.57;;
8247;SDS011;4164;49.844;8.830;2022-07-23T07:55:35;9.63;;;8.30;;
8247;SDS011;4164;49.844;8.830;2022-07-23T07:58:01;9.00;;;7.77;;
8247;SDS011;4164;49.844;8.830;2022-07-23T08:00:26;11.67;;;8.03;;
8247;SDS011;4164;49.844;8.830;2022-07-23T08:02:52;10.03;;;7.97;;
8247;SDS011;4164;49.844;8.830;2022-07-23T08:05:20;10.17;;;8.10;;
8247;SDS011;4164;49.844;8.830;2022-07-23T08:07:51;10.63;;;7.73;;
8247;SDS011;4164;49.844;8.830;2022-07-23T08:10:17;10.13;;;7.97;;
8247;SDS011;4164;49.844;8.830;2022-07-23T08:12:44;9.80;;;8.10;;
8247;SDS011;4164;49.844;8.830;2022-07-23T08:15:12;8.83;;;8.00;;
8247;SDS011;4164;49.844;8.830;2022-07-23T08:17:38;8.73;;;7.87;;
8247;SDS011;4164;49.844;8.830;2022-07-23T08:20:05;8.63;;;7.80;;
8247;SDS011;4164;49.844;8.830;2022-07-23T08:25:21;8.60;;;7.70;;
8247;SDS011;4164;49.844;8.830;2022-07-23T08:27:49;13.30;;;7.93;;
8247;SDS011;4164;49.844;8.830;2022-07-23T08:30:15;15.90;;;8.80;;
8247;SDS011;4164;49.844;8.830;2022-07-23T08:33:01;9.90;;;7.93;;
8247;SDS011;4164;49.844;8.830;2022-07-23T08:35:48;9.47;;;7.63;;
8247;SDS011;4164;49.844;8.830;2022-07-23T08:38:15;9.40;;;7.90;;
8247;SDS011;4164;49.844;8.830;2022-07-23T08:40:43;11.23;;;8.17;;
8247;SDS011;4164;49.844;8.830;2022-07-23T08:43:12;8.37;;;6.93;;
8247;SDS011;4164;49.844;8.830;2022-07-23T08:45:42;9.97;;;7.60;;
8247;SDS011;4164;49.844;8.830;2022-07-23T08:48:13;9.07;;;8.03;;
8247;SDS011;4164;49.844;8.830;2022-07-23T08:50:44;9.83;;;8.70;;
8247;SDS011;4164;49.844;8.830;2022-07-23T08:53:12;9.13;;;7.83;;
8247;SDS011;4164;49.844;8.830;2022-07-23T08:55:38;9.33;;;8.30;;
8247;SDS011;4164;49.844;8.830;2022-07-23T08:58:07;9.53;;;7.80;;
8247;SDS011;4164;49.844;8.830;2022-07-23T09:00:33;9.33;;;8.33;;
8247;SDS011;4164;49.844;8.830;2022-07-23T09:02:59;9.13;;;7.63;;
8247;SDS011;4164;49.844;8.830;2022-07-23T09:05:24;12.70;;;7.83;;
8247;SDS011;4164;49.844;8.830;2022-07-23T09:08:03;9.67;;;7.93;;
8247;SDS011;4164;49.844;8.830;2022-07-23T09:10:28;9.93;;;7.87;;
8247;SDS011;4164;49.844;8.830;2022-07-23T09:12:54;7.97;;;7.13;;
8247;SDS011;4164;49.844;8.830;2022-07-23T09:15:19;8.60;;;7.37;;
8247;SDS011;4164;49.844;8.830;2022-07-23T09:17:45;8.07;;;7.27;;
8247;SDS011;4164;49.844;8.830;2022-07-23T09:20:12;8.53;;;7.33;;
8247;SDS011;4164;49.844;8.830;2022-07-23T09:22:40;8.23;;;7.43;;
8247;SDS011;4164;49.844;8.830;2022-07-23T09:25:12;7.70;;;6.90;;
8247;SDS011;4164;49.844;8.830;2022-07-23T09:27:59;10.10;;;6.93;;
8247;SDS011;4164;49.844;8.830;2022-07-23T09:30:28;8.20;;;6.90;;
8247;SDS011;4164;49.844;8.830;2022-07-23T09:33:15;7.90;;;7.10;;
8247;SDS011;4164;49.844;8.830;2022-07-23T09:35:54;9.53;;;8.07;;
8247;SDS011;4164;49.844;8.830;2022-07-23T09:38:22;8.23;;;6.63;;
8247;SDS011;4164;49.844;8.830;2022-07-23T09:41:05;8.50;;;7.03;;
8247;SDS011;4164;49.844;8.830;2022-07-23T09:43:31;11.43;;;7.43;;
8247;SDS011;4164;49.844;8.830;2022-07-23T09:48:42;7.87;;;7.07;;
8247;SDS011;4164;49.844;8.830;2022-07-23T09:51:08;7.80;;;6.43;;
8247;SDS011;4164;49.844;8.830;2022-07-23T09:53:33;7.00;;;6.30;;
8247;SDS011;4164;49.844;8.830;2022-07-23T09:55:59;8.53;;;7.57;;
8247;SDS011;4164;49.844;8.830;2022-07-23T09:58:25;9.87;;;7.93;;
8247;SDS011;4164;49.844;8.830;2022-07-23T10:00:52;8.87;;;6.97;;
8247;SDS011;4164;49.844;8.830;2022-07-23T10:03:18;8.13;;;6.93;;
8247;SDS011;4164;49.844;8.830;2022-07-23T10:05:45;7.70;;;6.80;;
8247;SDS011;4164;49.844;8.830;2022-07-23T10:08:12;7.80;;;7.00;;
8247;SDS011;4164;49.844;8.830;2022-07-23T10:10:40;9.47;;;6.87;;
8247;SDS011;4164;49.844;8.830;2022-07-23T10:13:06;8.37;;;7.10;;
8247;SDS011;4164;49.844;8.830;2022-07-23T10:15:50;8.13;;;7.27;;
8247;SDS011;4164;49.844;8.830;2022-07-23T10:18:16;8.50;;;6.50;;
8247;SDS011;4164;49.844;8.830;2022-07-23T10:20:42;10.70;;;7.03;;
8247;SDS011;4164;49.844;8.830;2022-07-23T10:23:17;8.40;;;6.77;;
8247;SDS011;4164;49.844;8.830;2022-07-23T10:26:00;7.67;;;6.97;;
8247;SDS011;4164;49.844;8.830;2022-07-23T10:33:58;7.20;;;6.50;;
8247;SDS011;4164;49.844;8.830;2022-07-23T10:36:59;6.93;;;6.33;;
8247;SDS011;4164;49.844;8.830;2022-07-23T10:42:34;9.33;;;7.00;;
8247;SDS011;4164;49.844;8.830;2022-07-23T10:45:00;7.40;;;6.43;;
8247;SDS011;4164;49.844;8.830;2022-07-23T10:47:29;7.10;;;6.40;;
8247;SDS011;4164;49.844;8.830;2022-07-23T10:50:26;6.97;;;6.33;;
8247;SDS011;4164;49.844;8.830;2022-07-23T10:57:59;7.10;;;6.40;;
8247;SDS011;4164;49.844;8.830;2022-07-23T11:00:29;6.73;;;6.13;;
8247;SDS011;4164;49.844;8.830;2022-07-23T11:03:01;7.93;;;5.97;;
8247;SDS011;4164;49.844;8.830;2022-07-23T11:05:44;7.70;;;6.17;;
8247;SDS011;4164;49.844;8.830;2022-07-23T11:10:55;6.83;;;5.40;;
8247;SDS011;4164;49.844;8.830;2022-07-23T11:23:58;7.50;;;6.43;;
8247;SDS011;4164;49.844;8.830;2022-07-23T11:26:43;7.60;;;5.87;;
8247;SDS011;4164;49.844;8.830;2022-07-23T11:31:59;10.20;;;6.00;;
8247;SDS011;4164;49.844;8.830;2022-07-23T11:36:55;5.90;;;5.40;;
8247;SDS011;4164;49.844;8.830;2022-07-23T11:39:20;8.03;;;5.53;;
8247;SDS011;4164;49.844;8.830;2022-07-23T11:41:50;6.70;;;6.00;;
8247;SDS011;4164;49.844;8.830;2022-07-23T11:44:32;6.17;;;5.57;;
8247;SDS011;4164;49.844;8.830;2022-07-23T11:47:03;7.00;;;6.30;;
8247;SDS011;4164;49.844;8.830;2022-07-23T11:49:33;7.00;;;5.67;;
8247;SDS011;4164;49.844;8.830;2022-07-23T11:54:36;6.13;;;5.63;;
8247;SDS011;4164;49.844;8.830;2022-07-23T11:57:11;7.00;;;6.40;;
8247;SDS011;4164;49.844;8.830;2022-07-23T11:59:36;5.83;;;5.30;;
8247;SDS011;4164;49.844;8.830;2022-07-23T12:02:04;6.07;;;5.40;;
8247;SDS011;4164;49.844;8.830;2022-07-23T12:04:47;6.53;;;5.90;;
8247;SDS011;4164;49.844;8.830;2022-07-23T12:07:34;6.70;;;6.00;;
8247;SDS011;4164;49.844;8.830;2022-07-23T12:10:08;6.70;;;6.03;;
8247;SDS011;4164;49.844;8.830;2022-07-23T12:12:38;7.23;;;5.77;;
8247;SDS011;4164;49.844;8.830;2022-07-23T12:15:16;5.70;;;5.20;;
8247;SDS011;4164;49.844;8.830;2022-07-23T12:17:50;5.90;;;5.40;;
8247;SDS011;4164;49.844;8.830;2022-07-23T12:20:19;5.93;;;5.43;;
8247;SDS011;4164;49.844;8.830;2022-07-23T12:22:47;7.07;;;5.47;;
8247;SDS011;4164;49.844;8.830;2022-07-23T12:25:15;5.93;;;5.30;;
8247;SDS011;4164;49.844;8.830;2022-07-23T12:27:42;5.73;;;5.10;;
8247;SDS011;4164;49.844;8.830;2022-07-23T12:30:43;6.73;;;6.07;;
8247;SDS011;4164;49.844;8.830;2022-07-23T12:33:03;5.93;;;5.33;;
8247;SDS011;4164;49.844;8.830;2022-07-23T12:35:31;6.87;;;5.93;;
8247;SDS011;4164;49.844;8.830;2022-07-23T12:38:01;7.43;;;6.10;;
8247;SDS011;4164;49.844;8.830;2022-07-23T12:40:30;7.13;;;6.43;;
8247;SDS011;4164;49.844;8.830;2022-07-23T12:43:08;6.33;;;5.83;;
8247;SDS011;4164;49.844;8.830;2022-07-23T12:45:54;6.40;;;5.63;;
8247;SDS011;4164;49.844;8.830;2022-07-23T12:48:37;7.60;;;5.93;;
8247;SDS011;4164;49.844;8.830;2022-07-23T12:51:15;5.77;;;5.20;;
8247;SDS011;4164;49.844;8.830;2022-07-23T12:53:46;8.47;;;6.13;;
8247;SDS011;4164;49.844;8.830;2022-07-23T12:56:16;5.67;;;5.27;;
8247;SDS011;4164;49.844;8.830;2022-07-23T13:01:32;7.00;;;6.27;;
8247;SDS011;4164;49.844;8.830;2022-07-23T13:04:01;6.10;;;5.50;;
8247;SDS011;4164;49.844;8.830;2022-07-23T13:06:34;7.23;;;5.50;;
8247;SDS011;4164;49.844;8.830;2022-07-23T13:09:02;7.00;;;5.93;;
8247;SDS011;4164;49.844;8.830;2022-07-23T13:11:30;6.40;;;5.80;;
8247;SDS011;4164;49.844;8.830;2022-07-23T13:13:56;6.47;;;5.87;;
8247;SDS011;4164;49.844;8.830;2022-07-23T13:16:22;6.17;;;5.43;;
8247;SDS011;4164;49.844;8.830;2022-07-23T13:18:47;6.23;;;5.73;;
8247;SDS011;4164;49.844;8.830;2022-07-23T13:21:13;7.17;;;5.80;;
8247;SDS011;4164;49.844;8.830;2022-07-23T13:23:39;6.60;;;6.00;;
8247;SDS011;4164;49.844;8.830;2022-07-23T13:26:04;6.87;;;5.67;;
8247;SDS011;4164;49.844;8.830;2022-07-23T13:28:30;7.47;;;5.87;;
8247;SDS011;4164;49.844;8.830;2022-07-23T13:30:55;7.63;;;6.23;;
8247;SDS011;4164;49.844;8.830;2022-07-23T13:33:22;6.27;;;5.67;;
8247;SDS011;4164;49.844;8.830;2022-07-23T13:35:49;6.30;;;5.80;;
8247;SDS011;4164;49.844;8.830;2022-07-23T13:38:16;6.40;;;5.80;;
8247;SDS011;4164;49.844;8.830;2022-07-23T13:40:44;6.43;;;5.83;;
8247;SDS011;4164;49.844;8.830;2022-07-23T13:43:11;6.70;;;6.10;;
8247;SDS011;4164;49.844;8.830;2022-07-23T13:45:39;6.63;;;5.93;;
8247;SDS011;4164;49.844;8.830;2022-07-23T13:48:05;6.80;;;6.03;;
8247;SDS011;4164;49.844;8.830;2022-07-23T13:50:31;6.93;;;6.23;;
8247;SDS011;4164;49.844;8.830;2022-07-23T13:53:00;6.40;;;5.90;;
8247;SDS011;4164;49.844;8.830;2022-07-23T13:55:30;7.53;;;6.47;;
8247;SDS011;4164;49.844;8.830;2022-07-23T13:57:56;7.83;;;6.27;;
8247;SDS011;4164;49.844;8.830;2022-07-23T14:00:22;7.53;;;6.17;;
8247;SDS011;4164;49.844;8.830;2022-07-23T14:02:47;6.60;;;5.83;;
8247;SDS011;4164;49.844;8.830;2022-07-23T14:05:13;6.30;;;5.70;;
8247;SDS011;4164;49.844;8.830;2022-07-23T14:07:39;6.13;;;5.63;;
8247;SDS011;4164;49.844;8.830;2022-07-23T14:10:05;7.10;;;6.13;;
8247;SDS011;4164;49.844;8.830;2022-07-23T14:12:32;6.50;;;5.90;;
8247;SDS011;4164;49.844;8.830;2022-07-23T14:14:58;5.83;;;5.33;;
8247;SDS011;4164;49.844;8.830;2022-07-23T14:17:23;6.50;;;5.70;;
8247;SDS011;4164;49.844;8.830;2022-07-23T14:19:49;6.23;;;5.63;;
8247;SDS011;4164;49.844;8.830;2022-07-23T14:22:15;5.47;;;5.03;;
8247;SDS011;4164;49.844;8.830;2022-07-23T14:24:41;6.63;;;5.93;;
8247;SDS011;4164;49.844;8.830;2022-07-23T14:27:07;6.37;;;5.67;;
8247;SDS011;4164;49.844;8.830;2022-07-23T14:29:33;6.57;;;5.47;;
8247;SDS011;4164;49.844;8.830;2022-07-23T14:31:59;6.40;;;5.33;;
8247;SDS011;4164;49.844;8.830;2022-07-23T14:34:25;5.90;;;5.40;;
8247;SDS011;4164;49.844;8.830;2022-07-23T14:36:51;6.17;;;5.53;;
8247;SDS011;4164;49.844;8.830;2022-07-23T14:39:17;6.20;;;5.60;;
8247;SDS011;4164;49.844;8.830;2022-07-23T14:41:43;6.63;;;6.00;;
8247;SDS011;4164;49.844;8.830;2022-07-23T14:44:08;6.80;;;5.80;;
8247;SDS011;4164;49.844;8.830;2022-07-23T14:46:34;5.97;;;5.37;;
8247;SDS011;4164;49.844;8.830;2022-07-23T14:49:00;6.27;;;5.77;;
8247;SDS011;4164;49.844;8.830;2022-07-23T14:51:25;6.37;;;5.37;;
8247;SDS011;4164;49.844;8.830;2022-07-23T14:53:51;5.83;;;5.37;;
8247;SDS011;4164;49.844;8.830;2022-07-23T14:56:16;6.20;;;5.60;;
8247;SDS011;4164;49.844;8.830;2022-07-23T14:58:42;8.73;;;5.93;;
8247;SDS011;4164;49.844;8.830;2022-07-23T15:01:08;6.00;;;5.40;;
8247;SDS011;4164;49.844;8.830;2022-07-23T15:03:33;6.40;;;5.80;;
8247;SDS011;4164;49.844;8.830;2022-07-23T15:05:59;6.43;;;5.80;;
8247;SDS011;4164;49.844;8.830;2022-07-23T15:08:25;16.37;;;6.77;;
8247;SDS011;4164;49.844;8.830;2022-07-23T15:10:50;6.97;;;6.27;;
8247;SDS011;4164;49.844;8.830;2022-07-23T15:13:16;6.07;;;5.57;;
8247;SDS011;4164;49.844;8.830;2022-07-23T15:15:42;6.10;;;5.60;;
8247;SDS011;4164;49.844;8.830;2022-07-23T15:18:08;7.10;;;5.90;;
8247;SDS011;4164;49.844;8.830;2022-07-23T15:20:35;6.13;;;5.60;;
8247;SDS011;4164;49.844;8.830;2022-07-23T15:23:02;7.47;;;5.70;;
8247;SDS011;4164;49.844;8.830;2022-07-23T15:25:28;7.70;;;5.83;;
8247;SDS011;4164;49.844;8.830;2022-07-23T15:27:54;5.40;;;5.00;;
8247;SDS011;4164;49.844;8.830;2022-07-23T15:30:21;5.97;;;5.47;;
8247;SDS011;4164;49.844;8.830;2022-07-23T15:32:52;9.30;;;5.80;;
8247;SDS011;4164;49.844;8.830;2022-07-23T15:35:18;7.40;;;5.87;;
8247;SDS011;4164;49.844;8.830;2022-07-23T15:37:44;6.27;;;5.67;;
8247;SDS011;4164;49.844;8.830;2022-07-23T15:40:10;6.93;;;5.50;;
8247;SDS011;4164;49.844;8.830;2022-07-23T15:42:36;6.13;;;5.53;;
8247;SDS011;4164;49.844;8.830;2022-07-23T15:45:02;6.20;;;5.57;;
8247;SDS011;4164;49.844;8.830;2022-07-23T15:47:28;7.27;;;5.20;;
8247;SDS011;4164;49.844;8.830;2022-07-23T15:49:54;6.53;;;5.87;;
8247;SDS011;4164;49.844;8.830;2022-07-23T15:52:19;7.57;;;6.23;;
8247;SDS011;4164;49.844;8.830;2022-07-23T15:54:45;12.33;;;7.17;;